sensor_id;sensor_type;location;lat;lon;timestamp;pressure;altitude;pressure_sealevel;temperature;humidity
69035;BME280;56091;55.756;37.412;2023-05-20T00:01:34;100031.41;;;10.62;51.19
69035;BME280;56091;55.756;37.412;2023-05-20T00:06:35;100015.47;;;10.61;51.26
69035;BME280;56091;55.756;37.412;2023-05-20T00:11:36;100001.03;;;10.43;52.02
69035;BME280;56091;55.756;37.412;2023-05-20T00:16:37;100019.44;;;10.58;51.64
69035;BME280;56091;55.756;37.412;2023-05-20T00:21:37;100024.50;;;10.54;51.37
69035;BME280;56091;55.756;37.412;2023-05-20T00:26:38;100023.91;;;10.64;50.95
69035;BME280;56091;55.756;37.412;2023-05-20T00:31:39;99987.44;;;10.50;50.96
69035;BME280;56091;55.756;37.412;2023-05-20T00:36:40;99994.22;;;10.52;51.45
69035;BME280;56091;55.756;37.412;2023-05-20T00:41:42;100016.88;;;10.63;51.88
69035;BME280;56091;55.756;37.412;2023-05-20T00:46:44;100021.19;;;10.76;52.30
69035;BME280;56091;55.756;37.412;2023-05-20T00:51:45;100027.19;;;10.66;52.52
69035;BME280;56091;55.756;37.412;2023-05-20T00:56:47;100027.44;;;10.53;53.29
69035;BME280;56091;55.756;37.412;2023-05-20T01:01:48;100030.13;;;10.41;54.37
69035;BME280;56091;55.756;37.412;2023-05-20T01:06:49;100033.03;;;10.28;55.47
69035;BME280;56091;55.756;37.412;2023-05-20T01:11:57;100013.94;;;10.18;56.06
69035;BME280;56091;55.756;37.412;2023-05-20T01:17:01;100027.88;;;10.14;56.49
69035;BME280;56091;55.756;37.412;2023-05-20T01:22:09;100018.16;;;10.13;57.13
69035;BME280;56091;55.756;37.412;2023-05-20T01:27:14;100010.53;;;10.22;56.73
69035;BME280;56091;55.756;37.412;2023-05-20T01:32:22;100019.09;;;10.19;56.89
69035;BME280;56091;55.756;37.412;2023-05-20T01:37:24;100043.22;;;10.02;57.71
69035;BME280;56091;55.756;37.412;2023-05-20T01:42:26;100019.63;;;9.74;58.49
69035;BME280;56091;55.756;37.412;2023-05-20T01:47:28;100039.44;;;9.80;59.04
69035;BME280;56091;55.756;37.412;2023-05-20T01:52:29;100035.59;;;9.87;58.68
69035;BME280;56091;55.756;37.412;2023-05-20T01:57:31;100029.03;;;9.83;58.96
69035;BME280;56091;55.756;37.412;2023-05-20T02:02:32;100038.63;;;9.79;59.39
69035;BME280;56091;55.756;37.412;2023-05-20T02:07:35;100024.06;;;9.68;59.66
69035;BME280;56091;55.756;37.412;2023-05-20T02:12:36;100045.06;;;9.78;59.95
69035;BME280;56091;55.756;37.412;2023-05-20T02:17:38;100032.50;;;9.72;60.64
69035;BME280;56091;55.756;37.412;2023-05-20T02:22:59;100035.03;;;9.55;61.33
69035;BME280;56091;55.756;37.412;2023-05-20T02:28:00;100025.22;;;9.61;61.19
69035;BME280;56091;55.756;37.412;2023-05-20T02:33:01;100030.75;;;9.66;61.32
69035;BME280;56091;55.756;37.412;2023-05-20T02:38:02;100021.81;;;9.65;61.50
69035;BME280;56091;55.756;37.412;2023-05-20T02:43:03;100037.75;;;9.67;61.94
69035;BME280;56091;55.756;37.412;2023-05-20T02:48:04;100024.50;;;9.53;62.45
69035;BME280;56091;55.756;37.412;2023-05-20T02:53:06;100011.97;;;9.59;62.29
69035;BME280;56091;55.756;37.412;2023-05-20T02:58:07;100034.03;;;9.68;62.38
69035;BME280;56091;55.756;37.412;2023-05-20T03:03:08;100039.91;;;9.88;62.14
69035;BME280;56091;55.756;37.412;2023-05-20T03:08:10;100039.78;;;9.71;62.96
69035;BME280;56091;55.756;37.412;2023-05-20T03:13:11;100032.03;;;9.75;63.24
69035;BME280;56091;55.756;37.412;2023-05-20T03:18:14;100043.00;;;9.62;63.74
69035;BME280;56091;55.756;37.412;2023-05-20T03:23:15;100037.41;;;9.63;63.82
69035;BME280;56091;55.756;37.412;2023-05-20T03:28:16;100044.53;;;9.69;64.15
69035;BME280;56091;55.756;37.412;2023-05-20T03:33:17;100048.84;;;9.89;63.28
69035;BME280;56091;55.756;37.412;2023-05-20T03:38:21;100047.28;;;9.81;63.86
69035;BME280;56091;55.756;37.412;2023-05-20T03:43:24;100051.31;;;9.90;63.89
69035;BME280;56091;55.756;37.412;2023-05-20T03:48:26;100047.53;;;9.91;64.00
69035;BME280;56091;55.756;37.412;2023-05-20T03:53:27;100035.00;;;9.97;63.71
69035;BME280;56091;55.756;37.412;2023-05-20T03:58:29;100047.09;;;10.18;63.39
69035;BME280;56091;55.756;37.412;2023-05-20T04:03:31;100044.03;;;10.03;63.92
69035;BME280;56091;55.756;37.412;2023-05-20T04:08:32;99998.69;;;10.00;63.24
69035;BME280;56091;55.756;37.412;2023-05-20T04:13:33;100042.19;;;10.27;63.35
69035;BME280;56091;55.756;37.412;2023-05-20T04:18:42;100041.41;;;10.38;63.01
69035;BME280;56091;55.756;37.412;2023-05-20T04:23:46;100029.28;;;10.29;63.22
69035;BME280;56091;55.756;37.412;2023-05-20T04:28:47;100054.16;;;10.54;62.50
69035;BME280;56091;55.756;37.412;2023-05-20T04:33:49;100052.19;;;10.50;62.98
69035;BME280;56091;55.756;37.412;2023-05-20T04:38:51;100042.69;;;10.59;62.90
69035;BME280;56091;55.756;37.412;2023-05-20T04:43:53;100036.88;;;10.79;61.95
69035;BME280;56091;55.756;37.412;2023-05-20T04:48:53;100052.00;;;10.92;61.55
69035;BME280;56091;55.756;37.412;2023-05-20T04:53:54;100055.41;;;10.99;61.65
69035;BME280;56091;55.756;37.412;2023-05-20T04:58:55;100051.03;;;10.98;61.54
69035;BME280;56091;55.756;37.412;2023-05-20T05:03:56;100052.81;;;11.04;61.30
69035;BME280;56091;55.756;37.412;2023-05-20T05:08:57;100034.69;;;11.17;61.22
69035;BME280;56091;55.756;37.412;2023-05-20T05:13:58;99983.31;;;11.00;60.57
69035;BME280;56091;55.756;37.412;2023-05-20T05:19:00;100039.13;;;11.51;59.97
69035;BME280;56091;55.756;37.412;2023-05-20T05:24:05;100023.19;;;11.67;59.46
69035;BME280;56091;55.756;37.412;2023-05-20T05:29:06;100029.31;;;11.79;59.52
69035;BME280;56091;55.756;37.412;2023-05-20T05:34:07;100024.94;;;11.90;58.49
69035;BME280;56091;55.756;37.412;2023-05-20T05:39:08;100028.38;;;12.02;58.49
69035;BME280;56091;55.756;37.412;2023-05-20T05:44:10;100014.38;;;12.05;58.17
69035;BME280;56091;55.756;37.412;2023-05-20T05:49:11;100029.78;;;12.05;58.31
69035;BME280;56091;55.756;37.412;2023-05-20T05:54:12;100023.38;;;12.11;57.61
69035;BME280;56091;55.756;37.412;2023-05-20T05:59:15;100021.91;;;12.20;57.59
69035;BME280;56091;55.756;37.412;2023-05-20T06:04:16;100013.72;;;12.15;57.55
69035;BME280;56091;55.756;37.412;2023-05-20T06:09:16;100022.16;;;12.19;56.75
69035;BME280;56091;55.756;37.412;2023-05-20T06:14:17;100037.06;;;12.21;57.76
69035;BME280;56091;55.756;37.412;2023-05-20T06:19:19;100031.16;;;12.24;57.28
69035;BME280;56091;55.756;37.412;2023-05-20T06:24:20;100036.16;;;12.33;57.03
69035;BME280;56091;55.756;37.412;2023-05-20T06:29:22;100046.13;;;12.49;56.70
69035;BME280;56091;55.756;37.412;2023-05-20T06:34:23;100033.78;;;12.19;56.77
69035;BME280;56091;55.756;37.412;2023-05-20T06:39:24;100036.66;;;12.29;56.07
69035;BME280;56091;55.756;37.412;2023-05-20T06:44:25;100044.22;;;12.66;54.95
69035;BME280;56091;55.756;37.412;2023-05-20T06:49:46;100028.66;;;12.57;55.29
69035;BME280;56091;55.756;37.412;2023-05-20T06:54:47;100028.00;;;12.88;54.18
69035;BME280;56091;55.756;37.412;2023-05-20T06:59:48;100029.34;;;13.35;52.54
69035;BME280;56091;55.756;37.412;2023-05-20T07:04:50;100034.50;;;13.91;49.97
69035;BME280;56091;55.756;37.412;2023-05-20T07:09:52;100027.59;;;13.78;51.04
69035;BME280;56091;55.756;37.412;2023-05-20T07:14:52;100025.25;;;13.60;49.57
69035;BME280;56091;55.756;37.412;2023-05-20T07:19:55;100038.94;;;13.75;49.57
69035;BME280;56091;55.756;37.412;2023-05-20T07:24:56;100030.25;;;13.73;48.62
69035;BME280;56091;55.756;37.412;2023-05-20T07:29:57;100034.31;;;13.71;47.66
69035;BME280;56091;55.756;37.412;2023-05-20T07:34:59;100033.06;;;13.83;46.71
69035;BME280;56091;55.756;37.412;2023-05-20T07:40:00;100028.47;;;13.84;46.22
69035;BME280;56091;55.756;37.412;2023-05-20T07:45:01;100012.06;;;14.38;42.82
69035;BME280;56091;55.756;37.412;2023-05-20T07:50:05;100013.59;;;14.72;42.46
69035;BME280;56091;55.756;37.412;2023-05-20T07:55:08;100021.78;;;14.77;41.63
69035;BME280;56091;55.756;37.412;2023-05-20T08:00:10;100007.31;;;14.61;41.05
69035;BME280;56091;55.756;37.412;2023-05-20T08:05:17;100012.25;;;14.69;41.27
69035;BME280;56091;55.756;37.412;2023-05-20T08:10:20;100014.97;;;14.69;40.97
69035;BME280;56091;55.756;37.412;2023-05-20T08:15:22;100019.72;;;15.05;40.20
69035;BME280;56091;55.756;37.412;2023-05-20T08:20:23;100015.16;;;15.31;40.29
69035;BME280;56091;55.756;37.412;2023-05-20T08:25:26;99999.69;;;15.36;40.58
69035;BME280;56091;55.756;37.412;2023-05-20T08:30:28;100012.28;;;16.04;39.95
69035;BME280;56091;55.756;37.412;2023-05-20T08:35:29;100011.75;;;16.02;39.47
69035;BME280;56091;55.756;37.412;2023-05-20T08:40:30;99995.09;;;16.34;39.09
69035;BME280;56091;55.756;37.412;2023-05-20T08:45:38;100015.78;;;16.30;39.13
69035;BME280;56091;55.756;37.412;2023-05-20T08:50:49;100008.75;;;15.98;38.24
69035;BME280;56091;55.756;37.412;2023-05-20T08:55:55;100005.66;;;16.46;37.02
69035;BME280;56091;55.756;37.412;2023-05-20T09:00:57;100011.06;;;16.62;37.43
69035;BME280;56091;55.756;37.412;2023-05-20T09:06:08;100009.94;;;16.78;36.38
69035;BME280;56091;55.756;37.412;2023-05-20T09:11:15;100017.94;;;16.44;34.79
69035;BME280;56091;55.756;37.412;2023-05-20T09:16:16;100019.59;;;16.39;37.00
69035;BME280;56091;55.756;37.412;2023-05-20T09:21:17;100014.63;;;16.57;36.85
69035;BME280;56091;55.756;37.412;2023-05-20T09:26:18;100018.66;;;16.85;35.63
69035;BME280;56091;55.756;37.412;2023-05-20T09:31:18;100026.88;;;16.65;37.21
69035;BME280;56091;55.756;37.412;2023-05-20T09:36:22;100018.28;;;17.07;36.95
69035;BME280;56091;55.756;37.412;2023-05-20T09:41:26;100003.94;;;16.81;36.92
69035;BME280;56091;55.756;37.412;2023-05-20T09:46:33;100029.16;;;16.11;38.85
69035;BME280;56091;55.756;37.412;2023-05-20T09:51:36;100023.16;;;16.09;38.44
69035;BME280;56091;55.756;37.412;2023-05-20T09:56:39;100028.03;;;15.71;39.14
69035;BME280;56091;55.756;37.412;2023-05-20T10:01:41;100028.59;;;15.84;39.10
69035;BME280;56091;55.756;37.412;2023-05-20T10:12:28;100031.69;;;15.09;42.15
69035;BME280;56091;55.756;37.412;2023-05-20T10:22:39;100031.94;;;14.54;43.01
69035;BME280;56091;55.756;37.412;2023-05-20T10:27:46;100045.84;;;14.58;42.81
69035;BME280;56091;55.756;37.412;2023-05-20T10:32:52;100045.59;;;14.59;42.84
69035;BME280;56091;55.756;37.412;2023-05-20T10:38:16;100039.59;;;14.57;42.90
69035;BME280;56091;55.756;37.412;2023-05-20T10:43:25;100050.34;;;14.84;42.42
69035;BME280;56091;55.756;37.412;2023-05-20T10:48:30;100043.56;;;14.92;42.59
69035;BME280;56091;55.756;37.412;2023-05-20T10:53:39;100036.88;;;15.20;41.78
69035;BME280;56091;55.756;37.412;2023-05-20T10:58:41;100044.28;;;15.46;40.76
69035;BME280;56091;55.756;37.412;2023-05-20T11:03:43;100033.78;;;16.06;39.32
69035;BME280;56091;55.756;37.412;2023-05-20T11:08:45;100034.53;;;16.42;39.20
69035;BME280;56091;55.756;37.412;2023-05-20T11:13:51;100038.63;;;16.45;38.64
69035;BME280;56091;55.756;37.412;2023-05-20T11:18:52;100034.81;;;16.40;38.88
69035;BME280;56091;55.756;37.412;2023-05-20T11:23:53;100029.41;;;16.20;39.72
69035;BME280;56091;55.756;37.412;2023-05-20T11:28:55;100019.34;;;16.15;39.52
69035;BME280;56091;55.756;37.412;2023-05-20T11:33:58;100038.66;;;16.34;39.33
69035;BME280;56091;55.756;37.412;2023-05-20T11:39:03;99989.16;;;15.81;40.06
69035;BME280;56091;55.756;37.412;2023-05-20T11:44:10;100054.44;;;15.96;41.28
69035;BME280;56091;55.756;37.412;2023-05-20T11:49:15;100047.06;;;15.71;40.15
69035;BME280;56091;55.756;37.412;2023-05-20T11:54:16;100054.34;;;15.35;40.59
69035;BME280;56091;55.756;37.412;2023-05-20T11:59:18;100050.75;;;15.24;40.65
69035;BME280;56091;55.756;37.412;2023-05-20T12:04:18;100053.56;;;14.81;40.29
69035;BME280;56091;55.756;37.412;2023-05-20T12:09:19;100047.06;;;14.82;40.23
69035;BME280;56091;55.756;37.412;2023-05-20T12:14:20;100041.41;;;14.94;39.79
69035;BME280;56091;55.756;37.412;2023-05-20T12:19:21;100049.84;;;15.76;38.15
69035;BME280;56091;55.756;37.412;2023-05-20T12:24:22;100033.78;;;16.00;37.20
69035;BME280;56091;55.756;37.412;2023-05-20T12:29:22;100046.56;;;16.05;37.03
69035;BME280;56091;55.756;37.412;2023-05-20T12:34:23;100036.50;;;16.00;37.25
69035;BME280;56091;55.756;37.412;2023-05-20T12:39:24;100042.69;;;15.55;38.89
69035;BME280;56091;55.756;37.412;2023-05-20T12:44:25;100042.66;;;15.45;39.99
69035;BME280;56091;55.756;37.412;2023-05-20T12:49:28;100037.53;;;15.58;40.47
69035;BME280;56091;55.756;37.412;2023-05-20T12:54:29;100053.72;;;15.17;42.66
69035;BME280;56091;55.756;37.412;2023-05-20T12:59:30;100061.91;;;15.22;41.65
69035;BME280;56091;55.756;37.412;2023-05-20T13:04:31;100064.16;;;14.83;41.45
69035;BME280;56091;55.756;37.412;2023-05-20T13:09:35;100049.75;;;14.72;42.57
69035;BME280;56091;55.756;37.412;2023-05-20T13:14:35;100059.94;;;15.02;41.93
69035;BME280;56091;55.756;37.412;2023-05-20T13:19:37;100046.44;;;15.28;41.26
69035;BME280;56091;55.756;37.412;2023-05-20T13:24:38;100052.81;;;14.96;41.77
69035;BME280;56091;55.756;37.412;2023-05-20T13:29:38;100057.75;;;14.99;42.49
69035;BME280;56091;55.756;37.412;2023-05-20T13:34:39;100052.63;;;15.13;42.12
69035;BME280;56091;55.756;37.412;2023-05-20T13:39:40;100054.44;;;14.92;41.98
69035;BME280;56091;55.756;37.412;2023-05-20T13:44:43;100056.53;;;14.75;42.27
69035;BME280;56091;55.756;37.412;2023-05-20T13:49:44;100038.34;;;14.75;42.60
69035;BME280;56091;55.756;37.412;2023-05-20T13:54:45;100030.69;;;14.67;42.83
69035;BME280;56091;55.756;37.412;2023-05-20T13:59:48;100048.41;;;14.80;42.90
69035;BME280;56091;55.756;37.412;2023-05-20T14:04:48;100054.75;;;15.06;43.03
69035;BME280;56091;55.756;37.412;2023-05-20T14:09:49;100043.03;;;14.90;43.48
69035;BME280;56091;55.756;37.412;2023-05-20T14:14:50;100046.34;;;15.08;43.12
69035;BME280;56091;55.756;37.412;2023-05-20T14:19:51;100024.53;;;14.87;43.72
69035;BME280;56091;55.756;37.412;2023-05-20T14:24:54;100035.31;;;15.40;42.80
69035;BME280;56091;55.756;37.412;2023-05-20T14:29:55;100016.50;;;15.23;42.84
69035;BME280;56091;55.756;37.412;2023-05-20T14:34:59;100029.00;;;15.19;41.49
69035;BME280;56091;55.756;37.412;2023-05-20T14:40:00;99986.31;;;14.99;41.08
69035;BME280;56091;55.756;37.412;2023-05-20T14:45:02;100025.50;;;15.29;40.98
69035;BME280;56091;55.756;37.412;2023-05-20T14:50:06;100000.16;;;15.08;41.18
69035;BME280;56091;55.756;37.412;2023-05-20T14:55:07;100012.59;;;14.88;41.04
69035;BME280;56091;55.756;37.412;2023-05-20T15:00:09;100014.94;;;14.64;42.22
69035;BME280;56091;55.756;37.412;2023-05-20T15:05:10;100028.28;;;14.76;42.16
69035;BME280;56091;55.756;37.412;2023-05-20T15:10:11;100015.00;;;14.79;42.41
69035;BME280;56091;55.756;37.412;2023-05-20T15:15:12;100001.03;;;14.55;42.57
69035;BME280;56091;55.756;37.412;2023-05-20T15:20:13;100008.00;;;19.71;32.47
69035;BME280;56091;55.756;37.412;2023-05-20T15:25:14;100013.38;;;22.07;28.47
69035;BME280;56091;55.756;37.412;2023-05-20T15:30:15;99985.38;;;21.51;28.41
69035;BME280;56091;55.756;37.412;2023-05-20T15:35:16;100010.78;;;22.64;26.77
69035;BME280;56091;55.756;37.412;2023-05-20T15:40:17;99996.13;;;22.37;26.54
69035;BME280;56091;55.756;37.412;2023-05-20T15:45:18;99995.41;;;23.29;25.44
69035;BME280;56091;55.756;37.412;2023-05-20T15:50:19;99984.78;;;20.62;29.02
69035;BME280;56091;55.756;37.412;2023-05-20T15:55:20;99981.34;;;18.82;32.47
69035;BME280;56091;55.756;37.412;2023-05-20T16:00:25;99976.53;;;17.56;35.02
69035;BME280;56091;55.756;37.412;2023-05-20T16:05:26;99983.34;;;16.44;37.32
69035;BME280;56091;55.756;37.412;2023-05-20T16:10:27;99994.88;;;15.95;38.78
69035;BME280;56091;55.756;37.412;2023-05-20T16:15:32;99983.97;;;15.54;39.66
69035;BME280;56091;55.756;37.412;2023-05-20T16:20:36;99974.97;;;15.33;40.73
69035;BME280;56091;55.756;37.412;2023-05-20T16:25:36;99951.81;;;15.05;40.98
69035;BME280;56091;55.756;37.412;2023-05-20T16:30:37;99981.97;;;15.03;41.35
69035;BME280;56091;55.756;37.412;2023-05-20T16:35:41;99984.31;;;14.79;41.87
69035;BME280;56091;55.756;37.412;2023-05-20T16:40:41;99982.38;;;14.69;41.24
69035;BME280;56091;55.756;37.412;2023-05-20T16:45:42;99941.59;;;14.06;41.69
69035;BME280;56091;55.756;37.412;2023-05-20T16:50:43;99986.31;;;14.51;41.88
69035;BME280;56091;55.756;37.412;2023-05-20T16:55:44;99994.91;;;14.33;42.84
69035;BME280;56091;55.756;37.412;2023-05-20T17:00:45;100003.53;;;14.24;43.28
69035;BME280;56091;55.756;37.412;2023-05-20T17:05:46;99978.75;;;14.11;43.44
69035;BME280;56091;55.756;37.412;2023-05-20T17:10:47;100005.03;;;14.05;44.44
69035;BME280;56091;55.756;37.412;2023-05-20T17:15:49;100010.22;;;14.06;45.18
69035;BME280;56091;55.756;37.412;2023-05-20T17:20:50;100002.50;;;13.93;46.03
69035;BME280;56091;55.756;37.412;2023-05-20T17:25:51;100002.34;;;13.73;47.31
69035;BME280;56091;55.756;37.412;2023-05-20T17:30:52;100002.91;;;13.75;47.50
69035;BME280;56091;55.756;37.412;2023-05-20T17:35:52;99983.84;;;13.37;48.10
69035;BME280;56091;55.756;37.412;2023-05-20T17:40:53;100008.03;;;13.22;49.64
69035;BME280;56091;55.756;37.412;2023-05-20T17:45:54;99965.47;;;12.90;50.20
69035;BME280;56091;55.756;37.412;2023-05-20T17:50:55;99983.97;;;12.76;51.46
69035;BME280;56091;55.756;37.412;2023-05-20T17:55:57;100018.09;;;12.77;54.17
69035;BME280;56091;55.756;37.412;2023-05-20T18:00:58;100024.72;;;12.47;57.40
69035;BME280;56091;55.756;37.412;2023-05-20T18:05:59;100007.06;;;12.06;60.82
69035;BME280;56091;55.756;37.412;2023-05-20T18:11:01;99978.53;;;11.81;61.62
69035;BME280;56091;55.756;37.412;2023-05-20T18:16:02;99953.66;;;11.79;62.20
69035;BME280;56091;55.756;37.412;2023-05-20T18:21:03;99985.41;;;11.89;61.79
69035;BME280;56091;55.756;37.412;2023-05-20T18:26:06;99980.19;;;11.82;62.43
69035;BME280;56091;55.756;37.412;2023-05-20T18:31:08;99989.34;;;11.81;62.91
69035;BME280;56091;55.756;37.412;2023-05-20T18:36:12;99989.03;;;11.78;63.31
69035;BME280;56091;55.756;37.412;2023-05-20T18:41:13;99984.53;;;11.83;64.40
69035;BME280;56091;55.756;37.412;2023-05-20T18:46:14;99984.78;;;11.65;64.40
69035;BME280;56091;55.756;37.412;2023-05-20T18:51:15;99969.63;;;11.64;64.95
69035;BME280;56091;55.756;37.412;2023-05-20T18:56:16;99968.56;;;11.65;65.11
69035;BME280;56091;55.756;37.412;2023-05-20T19:01:17;99962.81;;;11.44;65.75
69035;BME280;56091;55.756;37.412;2023-05-20T19:06:18;99942.78;;;11.11;67.76
69035;BME280;56091;55.756;37.412;2023-05-20T19:11:19;99957.47;;;11.04;69.65
69035;BME280;56091;55.756;37.412;2023-05-20T19:16:20;99953.69;;;10.88;72.30
69035;BME280;56091;55.756;37.412;2023-05-20T19:21:21;99932.88;;;10.60;74.99
69035;BME280;56091;55.756;37.412;2023-05-20T19:26:24;99941.44;;;10.57;74.88
69035;BME280;56091;55.756;37.412;2023-05-20T19:31:25;99925.28;;;10.45;74.58
69035;BME280;56091;55.756;37.412;2023-05-20T19:36:26;99906.78;;;10.25;74.32
69035;BME280;56091;55.756;37.412;2023-05-20T19:41:27;99916.41;;;10.44;75.04
69035;BME280;56091;55.756;37.412;2023-05-20T19:46:28;99917.47;;;10.31;75.92
69035;BME280;56091;55.756;37.412;2023-05-20T19:51:28;99884.25;;;10.43;75.93
69035;BME280;56091;55.756;37.412;2023-05-20T19:56:29;99898.19;;;10.51;75.76
69035;BME280;56091;55.756;37.412;2023-05-20T20:01:30;99846.22;;;10.15;74.91
69035;BME280;56091;55.756;37.412;2023-05-20T20:06:31;99898.81;;;10.42;75.94
69035;BME280;56091;55.756;37.412;2023-05-20T20:11:32;99891.78;;;10.41;76.10
69035;BME280;56091;55.756;37.412;2023-05-20T20:16:33;99883.91;;;10.27;76.52
69035;BME280;56091;55.756;37.412;2023-05-20T20:21:34;99881.94;;;10.34;76.67
69035;BME280;56091;55.756;37.412;2023-05-20T20:26:35;99888.50;;;10.27;78.42
69035;BME280;56091;55.756;37.412;2023-05-20T20:31:36;99887.34;;;10.23;79.58
69035;BME280;56091;55.756;37.412;2023-05-20T20:36:37;99838.75;;;10.06;80.01
69035;BME280;56091;55.756;37.412;2023-05-20T20:41:39;99867.09;;;10.08;79.98
69035;BME280;56091;55.756;37.412;2023-05-20T20:46:44;99850.72;;;9.98;81.54
69035;BME280;56091;55.756;37.412;2023-05-20T20:51:46;99839.22;;;9.91;81.81
69035;BME280;56091;55.756;37.412;2023-05-20T20:56:47;99838.97;;;10.04;82.28
69035;BME280;56091;55.756;37.412;2023-05-20T21:01:49;99823.59;;;10.05;79.64
69035;BME280;56091;55.756;37.412;2023-05-20T21:06:52;99812.13;;;9.97;79.67
69035;BME280;56091;55.756;37.412;2023-05-20T21:11:52;99823.59;;;10.05;79.95
69035;BME280;56091;55.756;37.412;2023-05-20T21:16:56;99812.97;;;9.98;80.09
69035;BME280;56091;55.756;37.412;2023-05-20T21:21:57;99814.47;;;10.06;80.22
69035;BME280;56091;55.756;37.412;2023-05-20T21:26:58;99808.16;;;10.00;80.52
69035;BME280;56091;55.756;37.412;2023-05-20T21:31:58;99797.03;;;9.96;80.64
69035;BME280;56091;55.756;37.412;2023-05-20T21:36:59;99792.72;;;9.84;82.10
69035;BME280;56091;55.756;37.412;2023-05-20T21:42:00;99811.47;;;9.90;83.14
69035;BME280;56091;55.756;37.412;2023-05-20T21:47:01;99807.03;;;9.72;86.63
69035;BME280;56091;55.756;37.412;2023-05-20T21:52:01;99783.50;;;9.44;89.77
69035;BME280;56091;55.756;37.412;2023-05-20T21:57:05;99795.00;;;9.40;91.65
69035;BME280;56091;55.756;37.412;2023-05-20T22:02:06;99789.63;;;9.28;92.11
69035;BME280;56091;55.756;37.412;2023-05-20T22:07:06;99769.13;;;9.15;92.65
69035;BME280;56091;55.756;37.412;2023-05-20T22:12:07;99697.50;;;8.67;92.46
69035;BME280;56091;55.756;37.412;2023-05-20T22:17:10;99770.66;;;9.23;93.11
69035;BME280;56091;55.756;37.412;2023-05-20T22:22:11;99749.22;;;9.16;92.62
69035;BME280;56091;55.756;37.412;2023-05-20T22:27:12;99768.19;;;9.33;92.98
69035;BME280;56091;55.756;37.412;2023-05-20T22:32:13;99748.41;;;9.27;93.17
69035;BME280;56091;55.756;37.412;2023-05-20T22:37:13;99759.28;;;9.32;93.20
69035;BME280;56091;55.756;37.412;2023-05-20T22:42:15;99741.28;;;9.21;94.02
69035;BME280;56091;55.756;37.412;2023-05-20T22:47:16;99724.44;;;9.02;93.96
69035;BME280;56091;55.756;37.412;2023-05-20T22:52:16;99738.94;;;9.13;94.09
69035;BME280;56091;55.756;37.412;2023-05-20T22:57:18;99729.69;;;9.21;97.23
69035;BME280;56091;55.756;37.412;2023-05-20T23:02:18;99724.91;;;9.11;100.00
69035;BME280;56091;55.756;37.412;2023-05-20T23:07:20;99680.81;;;8.76;100.00
69035;BME280;56091;55.756;37.412;2023-05-20T23:12:21;99706.28;;;9.09;100.00
69035;BME280;56091;55.756;37.412;2023-05-20T23:17:22;99698.56;;;9.13;100.00
69035;BME280;56091;55.756;37.412;2023-05-20T23:22:23;99690.97;;;9.10;100.00
69035;BME280;56091;55.756;37.412;2023-05-20T23:27:24;99698.69;;;9.30;100.00
69035;BME280;56091;55.756;37.412;2023-05-20T23:32:27;99688.03;;;9.23;100.00
69035;BME280;56091;55.756;37.412;2023-05-20T23:37:28;99686.63;;;9.21;100.00
69035;BME280;56091;55.756;37.412;2023-05-20T23:42:29;99693.19;;;9.25;100.00
69035;BME280;56091;55.756;37.412;2023-05-20T23:47:31;99662.31;;;9.04;99.52
69035;BME280;56091;55.756;37.412;2023-05-20T23:52:36;99677.03;;;9.25;100.00
69035;BME280;56091;55.756;37.412;2023-05-20T23:57:36;99656.69;;;9.17;100.00
